Onalaska, WI (54650)

7:25 AM CDT on July 03, 2015 (GMT -0500)
APRSWXNET | | Change Station
CLOSE
Current Station
Personal Weather Station
Location: Onalaska, WI
Elevation: 682 ft
Nearby Weather Stations

Elev 682 ft 43.88 °N, 91.23 °W | Updated 26 minutes ago

Mostly Cloudy
Mostly Cloudy
56 °F
Feels Like 56 °F
N
0
Wind Variable Wind from SSE
Gusts 0.0 mph

Today
High -- | Low -- °F
--% Chance of Precip.
Yesterday
High -- | Low -- °F
Precip. -- in
5:27 AM 8:50 PM
Full, 97% visible
Pressure 29.99 in
Visibility 1.8 miles
Clouds Mostly Cloudy 300 ft
Dew Point 52 °F
Humidity 88%
Rainfall in
Snow Depth Not available.
UV 1 out of 12
Pollen 4.80 out of 12
Air Quality Not available.
Flu Activity Not available.
SPECI KLSE 031214Z 13006KT 1 3/4SM BR BKN003 13/13 A2999 RMK AO2 T01330133

More Conditions Fewer Conditions

Pressure 29.99 in
Visibility 1.8 miles
Clouds Mostly Cloudy 300 ft
Dew Point 52 °F
Humidity 88%
Rainfall in
Snow Depth Not available.
UV 1 out of 12
Pollen 4.80 out of 12
Air Quality Not available.
Flu Activity Not available.
SPECI KLSE 031214Z 13006KT 1 3/4SM BR BKN003 13/13 A2999 RMK AO2 T01330133

More Conditions Fewer Conditions

10-Day Weather Forecast

×

Almanac

Astronomy

Jul. 03, 2015 Rise Set
Actual Time
Civil Twilight
Nautical Twilight
Astronomical Twilight
Moon
Length of Visible Light
Length of Day
Tomorrow will be .
, % of the Moon is Illuminated

Today's Extremes

State Highs State Lows

Community

WunderPhotos

Upload Photos

1,834,656 photos uploaded!

WunderBlogs® & News

Nearby

Air Quality

  Air Quality AQ Index Pollutant
Not available.

Snow Depth

Station Depth Elevation

Earthquake Activity

City Distance Mag. Time & Date
Minimum magnitude displayed is 2.5.

Coastal Water Temperatures

Place Temperature

Stations

Nearby Weather Stations

Station Location Temp. Windchill Dew Point Humidity Wind Precip. Elev Updated Type